Time;durP1;ratioP1;P1;durP2;ratioP2;P2;SDS_P1;SDS_P2;PMS_P1;PMS_P2;Temp;Humidity;BMP_temperature;BMP_pressure;BME280_temperature;BME280_humidity;BME280_pressure;Samples;Min_cycle;Max_cycle;Signal;HPM_P1;HPM_P2
2022/11/21 00:01:54;;;;;;;;;;;21.20;42.90;;;;;;484704;246;1700;-44
2022/11/21 00:03:56;;;;;;;;;;;21.20;42.90;;;;;;484298;246;2188;-44
2022/11/21 00:05:58;;;;;;;;;;;21.20;42.90;;;;;;484335;246;1349;-44
2022/11/21 00:07:59;;;;;;;;;;;21.20;42.90;;;;;;484306;242;1209;-44
2022/11/21 00:10:00;;;;;;;;;;;21.20;43.00;;;;;;484222;246;1752;-42
2022/11/21 00:12:02;;;;;;;;;;;21.20;43.00;;;;;;484425;246;1282;-44
2022/11/21 00:14:03;;;;;;;;;;;21.10;43.00;;;;;;484607;246;1231;-41
2022/11/21 00:16:05;;;;;;;;;;;21.20;43.00;;;;;;484368;246;1688;-44
2022/11/21 00:18:06;;;;;;;;;;;21.10;42.90;;;;;;484244;246;1212;-41
2022/11/21 00:20:07;;;;;;;;;;;21.20;43.00;;;;;;484316;246;2735;-44
2022/11/21 00:22:09;;;;;;;;;;;21.20;42.90;;;;;;484246;246;1378;-44
2022/11/21 00:24:10;;;;;;;;;;;21.20;42.90;;;;;;484252;246;2112;-41
2022/11/21 00:26:12;;;;;;;;;;;21.20;42.90;;;;;;484166;246;2367;-41
2022/11/21 00:28:14;;;;;;;;;;;21.20;43.00;;;;;;484292;246;1442;-41
2022/11/21 00:30:15;;;;;;;;;;;21.20;42.90;;;;;;484137;246;1386;-43
2022/11/21 00:32:17;;;;;;;;;;;21.20;42.90;;;;;;484246;246;1589;-44
2022/11/21 00:34:18;;;;;;;;;;;21.10;42.90;;;;;;484299;246;1796;-44
2022/11/21 00:36:19;;;;;;;;;;;21.10;42.90;;;;;;484236;246;2210;-44
2022/11/21 00:38:23;;;;;;;;;;;21.10;42.90;;;;;;484233;246;2367;-41
2022/11/21 00:40:22;;;;;;;;;;;21.20;42.90;;;;;;484086;246;1337;-44
2022/11/21 00:42:23;;;;;;;;;;;21.10;42.90;;;;;;484186;246;2243;-41
2022/11/21 00:44:25;;;;;;;;;;;21.10;42.90;;;;;;484297;246;1286;-43
2022/11/21 00:46:27;;;;;;;;;;;21.10;42.90;;;;;;484258;246;1921;-43
2022/11/21 00:48:29;;;;;;;;;;;21.20;42.90;;;;;;484725;246;1689;-44
2022/11/21 00:50:30;;;;;;;;;;;21.20;42.90;;;;;;484348;246;1172;-44
2022/11/21 00:52:32;;;;;;;;;;;21.10;42.90;;;;;;484298;246;1249;-44
2022/11/21 00:54:34;;;;;;;;;;;21.20;42.80;;;;;;484293;243;1317;-42
2022/11/21 00:56:35;;;;;;;;;;;21.30;42.50;;;;;;484304;246;1326;-44
2022/11/21 00:58:39;;;;;;;;;;;21.50;42.20;;;;;;484372;246;1575;-44
2022/11/21 01:00:40;;;;;;;;;;;21.70;41.90;;;;;;484639;246;1457;-41
2022/11/21 01:02:42;;;;;;;;;;;21.80;41.50;;;;;;484709;246;2208;-45
2022/11/21 01:04:44;;;;;;;;;;;21.90;41.30;;;;;;484489;246;1318;-42
2022/11/21 01:06:45;;;;;;;;;;;22.00;41.10;;;;;;484486;246;1227;-44
2022/11/21 01:08:47;;;;;;;;;;;22.10;40.90;;;;;;484662;246;1387;-44
2022/11/21 01:10:48;;;;;;;;;;;22.20;40.80;;;;;;484790;246;1313;-45
2022/11/21 01:12:49;;;;;;;;;;;22.30;40.70;;;;;;484732;246;1319;-45
2022/11/21 01:14:51;;;;;;;;;;;22.30;40.60;;;;;;484339;246;1279;-45
2022/11/21 01:16:53;;;;;;;;;;;22.40;40.50;;;;;;484439;246;1245;-44
2022/11/21 01:18:54;;;;;;;;;;;22.40;40.40;;;;;;484468;246;1615;-41
2022/11/21 01:20:56;;;;;;;;;;;22.50;40.30;;;;;;484346;246;1815;-40
2022/11/21 01:22:58;;;;;;;;;;;22.50;40.30;;;;;;484284;246;2199;-45
2022/11/21 01:25:00;;;;;;;;;;;22.50;40.20;;;;;;484567;246;1249;-42
2022/11/21 01:27:01;;;;;;;;;;;22.60;40.10;;;;;;484755;246;1229;-43
2022/11/21 01:29:03;;;;;;;;;;;22.60;40.10;;;;;;484292;246;1260;-43
2022/11/21 01:31:04;;;;;;;;;;;22.60;40.00;;;;;;484639;246;1232;-41
2022/11/21 01:33:05;;;;;;;;;;;22.70;40.00;;;;;;484387;246;1678;-44
2022/11/21 01:35:07;;;;;;;;;;;22.70;39.90;;;;;;484410;246;1240;-42
2022/11/21 01:37:08;;;;;;;;;;;22.70;39.80;;;;;;484543;246;1237;-41
2022/11/21 01:39:10;;;;;;;;;;;22.80;39.80;;;;;;484403;242;1244;-42
2022/11/21 01:41:11;;;;;;;;;;;22.80;39.80;;;;;;484442;242;1488;-44
2022/11/21 01:43:12;;;;;;;;;;;22.80;39.80;;;;;;484732;246;2196;-42
2022/11/21 01:45:14;;;;;;;;;;;22.80;39.70;;;;;;484807;246;1386;-45
2022/11/21 01:47:16;;;;;;;;;;;22.80;39.70;;;;;;484499;246;1220;-43
2022/11/21 01:49:18;;;;;;;;;;;22.80;39.60;;;;;;484574;246;1421;-45
2022/11/21 01:51:19;;;;;;;;;;;22.80;39.60;;;;;;484404;246;1659;-44
2022/11/21 01:53:21;;;;;;;;;;;22.90;39.60;;;;;;484513;246;1687;-41
2022/11/21 01:55:22;;;;;;;;;;;22.90;39.60;;;;;;484881;242;1713;-43
2022/11/21 01:57:23;;;;;;;;;;;22.90;39.60;;;;;;484464;246;1365;-41
2022/11/21 01:59:25;;;;;;;;;;;22.90;39.50;;;;;;484401;246;1331;-44
2022/11/21 02:01:26;;;;;;;;;;;22.90;39.50;;;;;;484428;246;1188;-41
2022/11/21 02:03:28;;;;;;;;;;;22.90;39.50;;;;;;484496;246;2164;-44
2022/11/21 02:05:29;;;;;;;;;;;23.00;39.50;;;;;;484392;246;1214;-42
2022/11/21 02:07:30;;;;;;;;;;;23.00;39.50;;;;;;484519;246;1780;-43
2022/11/21 02:09:32;;;;;;;;;;;23.00;39.40;;;;;;484539;242;1303;-45
2022/11/21 02:11:34;;;;;;;;;;;23.00;39.50;;;;;;484527;246;1276;-44
2022/11/21 02:13:36;;;;;;;;;;;23.00;39.40;;;;;;484637;246;1236;-44
2022/11/21 02:15:38;;;;;;;;;;;23.00;39.40;;;;;;484434;246;1228;-45
2022/11/21 02:17:39;;;;;;;;;;;23.00;39.40;;;;;;484469;246;1249;-44
2022/11/21 02:19:41;;;;;;;;;;;23.10;39.40;;;;;;484521;246;2635;-44
2022/11/21 02:21:43;;;;;;;;;;;23.10;39.30;;;;;;484697;246;1284;-42
2022/11/21 02:23:44;;;;;;;;;;;23.10;39.40;;;;;;484414;242;2136;-44
2022/11/21 02:25:46;;;;;;;;;;;23.10;39.30;;;;;;484692;246;1283;-45
2022/11/21 02:27:47;;;;;;;;;;;23.10;39.30;;;;;;484429;246;1279;-44
2022/11/21 02:29:49;;;;;;;;;;;23.20;39.30;;;;;;484523;246;1311;-44
2022/11/21 02:31:53;;;;;;;;;;;23.20;39.30;;;;;;484729;246;1316;-44
2022/11/21 02:33:55;;;;;;;;;;;23.20;39.30;;;;;;484637;246;1435;-44
2022/11/21 02:35:57;;;;;;;;;;;23.20;39.20;;;;;;484963;246;1214;-41
2022/11/21 02:37:58;;;;;;;;;;;23.20;39.30;;;;;;484565;246;1389;-44
2022/11/21 02:40:00;;;;;;;;;;;23.20;39.30;;;;;;484715;246;1234;-44
2022/11/21 02:42:03;;;;;;;;;;;23.20;39.30;;;;;;484864;246;1202;-41
2022/11/21 02:44:03;;;;;;;;;;;23.20;39.30;;;;;;484336;246;2200;-44
2022/11/21 02:46:05;;;;;;;;;;;23.20;39.30;;;;;;484807;246;1705;-43
2022/11/21 02:48:06;;;;;;;;;;;23.20;39.30;;;;;;484470;246;1330;-43
2022/11/21 02:50:09;;;;;;;;;;;23.10;39.30;;;;;;484372;246;3290;-42
2022/11/21 02:52:10;;;;;;;;;;;22.90;39.70;;;;;;484655;246;1500;-43
2022/11/21 02:54:11;;;;;;;;;;;22.70;40.10;;;;;;484478;246;1914;-44
2022/11/21 02:56:14;;;;;;;;;;;22.60;40.40;;;;;;484691;246;1661;-42
2022/11/21 02:58:15;;;;;;;;;;;22.40;40.60;;;;;;484365;246;1607;-41
2022/11/21 03:00:17;;;;;;;;;;;22.30;40.90;;;;;;484364;246;1278;-44
2022/11/21 03:02:18;;;;;;;;;;;22.20;41.00;;;;;;484324;246;1875;-44
2022/11/21 03:04:19;;;;;;;;;;;22.20;41.30;;;;;;484546;246;2195;-43
2022/11/21 03:06:21;;;;;;;;;;;22.10;41.30;;;;;;484593;246;1526;-41
2022/11/21 03:08:22;;;;;;;;;;;22.00;41.50;;;;;;484442;246;1401;-44
2022/11/21 03:10:24;;;;;;;;;;;22.00;41.70;;;;;;484466;246;1286;-44
2022/11/21 03:12:25;;;;;;;;;;;21.90;41.70;;;;;;484339;246;1292;-44
2022/11/21 03:14:29;;;;;;;;;;;21.90;41.80;;;;;;484338;246;1197;-44
2022/11/21 03:16:30;;;;;;;;;;;21.80;41.80;;;;;;484268;246;1387;-44
2022/11/21 03:18:32;;;;;;;;;;;21.80;41.80;;;;;;484409;246;1654;-44
2022/11/21 03:20:34;;;;;;;;;;;21.80;41.90;;;;;;484490;246;1275;-41
2022/11/21 03:22:35;;;;;;;;;;;21.80;42.00;;;;;;484462;246;1823;-44
2022/11/21 03:24:36;;;;;;;;;;;21.80;42.00;;;;;;484348;246;2192;-44
2022/11/21 03:26:38;;;;;;;;;;;21.80;42.00;;;;;;484421;246;1201;-43
2022/11/21 03:28:39;;;;;;;;;;;21.70;42.00;;;;;;484327;246;1668;-44
2022/11/21 03:30:41;;;;;;;;;;;21.70;42.00;;;;;;484628;246;1261;-43
2022/11/21 03:32:42;;;;;;;;;;;21.70;42.10;;;;;;484827;246;1204;-44
2022/11/21 03:34:43;;;;;;;;;;;21.70;42.20;;;;;;484718;246;1248;-44
2022/11/21 03:36:45;;;;;;;;;;;21.70;42.20;;;;;;484561;246;1437;-44
2022/11/21 03:38:46;;;;;;;;;;;21.60;42.20;;;;;;484352;246;1185;-41
2022/11/21 03:40:48;;;;;;;;;;;21.60;42.20;;;;;;484272;246;1276;-44
2022/11/21 03:42:49;;;;;;;;;;;21.60;42.30;;;;;;484395;246;1798;-44
2022/11/21 03:44:51;;;;;;;;;;;21.60;42.30;;;;;;484296;246;2145;-44
2022/11/21 03:46:52;;;;;;;;;;;21.60;42.30;;;;;;484223;246;1410;-44
2022/11/21 03:48:54;;;;;;;;;;;21.50;42.30;;;;;;484524;246;1277;-44
2022/11/21 03:50:55;;;;;;;;;;;21.60;42.30;;;;;;484418;246;1677;-41
2022/11/21 03:52:57;;;;;;;;;;;21.50;42.30;;;;;;484442;246;1346;-44
2022/11/21 03:54:58;;;;;;;;;;;21.50;42.30;;;;;;484439;246;1614;-44
2022/11/21 03:56:59;;;;;;;;;;;21.50;42.40;;;;;;484357;246;1474;-44
2022/11/21 03:59:01;;;;;;;;;;;21.50;42.40;;;;;;484385;246;1887;-44
2022/11/21 04:01:03;;;;;;;;;;;21.50;42.40;;;;;;484349;246;1367;-44
2022/11/21 04:03:04;;;;;;;;;;;21.50;42.40;;;;;;484364;246;1246;-44
2022/11/21 04:05:05;;;;;;;;;;;21.40;42.50;;;;;;484269;246;2220;-41
2022/11/21 04:07:07;;;;;;;;;;;21.40;42.50;;;;;;484324;246;1267;-44
2022/11/21 04:09:08;;;;;;;;;;;21.40;42.50;;;;;;484453;246;1540;-44
2022/11/21 04:11:10;;;;;;;;;;;21.40;42.50;;;;;;484695;246;2064;-44
2022/11/21 04:13:12;;;;;;;;;;;21.40;42.50;;;;;;484301;246;1201;-45
2022/11/21 04:15:13;;;;;;;;;;;21.50;42.50;;;;;;484370;246;1253;-44
2022/11/21 04:17:15;;;;;;;;;;;21.40;42.50;;;;;;484366;246;1184;-44
2022/11/21 04:19:17;;;;;;;;;;;21.50;42.50;;;;;;484775;246;1186;-44
2022/11/21 04:21:18;;;;;;;;;;;21.40;42.50;;;;;;484451;246;1202;-44
2022/11/21 04:23:20;;;;;;;;;;;21.40;42.60;;;;;;484442;246;2111;-44
2022/11/21 04:25:21;;;;;;;;;;;21.40;42.60;;;;;;484412;246;2173;-44
2022/11/21 04:27:23;;;;;;;;;;;21.40;42.50;;;;;;484849;246;1225;-41
2022/11/21 04:29:25;;;;;;;;;;;21.40;42.60;;;;;;484802;246;1060;-43
2022/11/21 04:31:27;;;;;;;;;;;21.40;42.60;;;;;;484826;246;1243;-44
2022/11/21 04:33:28;;;;;;;;;;;21.30;42.60;;;;;;484849;246;1238;-44
2022/11/21 04:35:29;;;;;;;;;;;21.40;42.60;;;;;;484351;246;1311;-44
2022/11/21 04:37:30;;;;;;;;;;;21.40;42.60;;;;;;484410;246;1240;-44
2022/11/21 04:39:32;;;;;;;;;;;21.30;42.60;;;;;;484433;246;1251;-44
2022/11/21 04:41:33;;;;;;;;;;;21.30;42.60;;;;;;484646;242;1219;-44
2022/11/21 04:43:35;;;;;;;;;;;21.30;42.60;;;;;;484315;246;1324;-44
2022/11/21 04:45:36;;;;;;;;;;;21.30;42.60;;;;;;484282;246;2113;-44
2022/11/21 04:47:37;;;;;;;;;;;21.30;42.60;;;;;;484683;246;1400;-44
2022/11/21 04:49:39;;;;;;;;;;;21.30;42.70;;;;;;484800;246;1221;-44
2022/11/21 04:51:40;;;;;;;;;;;21.40;42.70;;;;;;484308;246;1376;-44
2022/11/21 04:53:42;;;;;;;;;;;21.30;42.70;;;;;;484332;246;1255;-44
2022/11/21 04:55:44;;;;;;;;;;;21.30;42.70;;;;;;484810;246;1292;-41
2022/11/21 04:57:45;;;;;;;;;;;21.30;42.70;;;;;;484815;246;1341;-45
2022/11/21 04:59:46;;;;;;;;;;;21.30;42.70;;;;;;484488;246;1496;-43
2022/11/21 05:01:48;;;;;;;;;;;21.30;42.70;;;;;;484680;246;1352;-44
2022/11/21 05:03:49;;;;;;;;;;;21.30;42.70;;;;;;484283;246;2172;-44
2022/11/21 05:05:50;;;;;;;;;;;21.30;42.60;;;;;;484566;246;1282;-41
2022/11/21 05:07:52;;;;;;;;;;;21.40;42.70;;;;;;484249;246;1393;-44
2022/11/21 05:09:54;;;;;;;;;;;21.30;42.70;;;;;;484323;246;1288;-44
2022/11/21 05:14:15;;;;;;;;;;;21.30;42.70;;;;;;484291;246;1428;-41
2022/11/21 05:16:16;;;;;;;;;;;21.30;42.70;;;;;;484167;246;2757;-44
2022/11/21 05:18:18;;;;;;;;;;;21.30;42.60;;;;;;484174;246;1435;-44
2022/11/21 05:20:20;;;;;;;;;;;21.30;42.70;;;;;;484209;246;1438;-44
2022/11/21 05:22:22;;;;;;;;;;;21.30;42.70;;;;;;484492;246;2697;-41
2022/11/21 05:24:23;;;;;;;;;;;21.20;42.70;;;;;;484147;246;2160;-44
2022/11/21 05:26:25;;;;;;;;;;;21.20;42.70;;;;;;484270;242;1676;-44
2022/11/21 05:28:26;;;;;;;;;;;21.20;42.70;;;;;;484180;242;1428;-44
2022/11/21 05:30:28;;;;;;;;;;;21.30;42.70;;;;;;484672;246;1240;-44
2022/11/21 05:32:29;;;;;;;;;;;21.20;42.70;;;;;;484376;246;1255;-41
2022/11/21 05:34:30;;;;;;;;;;;21.30;42.80;;;;;;484650;246;1689;-44
2022/11/21 05:36:32;;;;;;;;;;;21.20;42.70;;;;;;484728;246;1410;-44
2022/11/21 05:38:33;;;;;;;;;;;21.20;42.70;;;;;;484266;246;1395;-44
2022/11/21 05:40:34;;;;;;;;;;;21.30;42.70;;;;;;484438;246;1684;-44
2022/11/21 05:44:55;;;;;;;;;;;21.20;42.70;;;;;;484612;246;2171;-44
2022/11/21 05:46:56;;;;;;;;;;;21.30;42.70;;;;;;484111;242;1984;-44
2022/11/21 05:48:57;;;;;;;;;;;21.30;42.70;;;;;;484224;246;1289;-41
2022/11/21 05:50:59;;;;;;;;;;;21.30;42.70;;;;;;484419;246;1565;-42
2022/11/21 05:53:00;;;;;;;;;;;21.20;42.70;;;;;;484257;246;1679;-44
2022/11/21 05:55:02;;;;;;;;;;;21.20;42.80;;;;;;484087;246;1886;-44
2022/11/21 05:57:03;;;;;;;;;;;21.20;42.80;;;;;;484185;246;1239;-41
2022/11/21 05:59:04;;;;;;;;;;;21.20;42.80;;;;;;484368;246;1339;-44
2022/11/21 06:01:06;;;;;;;;;;;21.20;42.80;;;;;;484167;246;2064;-44
2022/11/21 06:05:27;;;;;;;;;;;21.20;42.70;;;;;;484345;246;2169;-43
2022/11/21 06:07:28;;;;;;;;;;;21.20;42.70;;;;;;484163;246;1517;-44
2022/11/21 06:09:29;;;;;;;;;;;21.20;42.70;;;;;;484201;246;1412;-41
2022/11/21 06:11:31;;;;;;;;;;;21.20;42.60;;;;;;484252;246;1582;-43
2022/11/21 06:13:32;;;;;;;;;;;21.20;42.70;;;;;;484536;242;1555;-44
2022/11/21 06:15:34;;;;;;;;;;;21.20;42.70;;;;;;484187;246;1258;-42
2022/11/21 06:17:35;;;;;;;;;;;21.20;42.70;;;;;;484268;246;1290;-41
2022/11/21 06:19:37;;;;;;;;;;;21.20;42.70;;;;;;484334;243;1498;-43
2022/11/21 06:21:39;;;;;;;;;;;21.20;42.70;;;;;;484140;246;1211;-44
2022/11/21 06:23:40;;;;;;;;;;;21.20;42.70;;;;;;484309;246;2350;-41
2022/11/21 06:25:41;;;;;;;;;;;21.20;42.60;;;;;;484360;246;2156;-44
2022/11/21 06:27:43;;;;;;;;;;;21.30;42.60;;;;;;484666;246;1532;-44
2022/11/21 06:29:45;;;;;;;;;;;21.20;42.60;;;;;;484382;246;1209;-44
2022/11/21 06:31:46;;;;;;;;;;;21.20;42.70;;;;;;484304;246;1380;-44
2022/11/21 06:33:47;;;;;;;;;;;21.20;42.70;;;;;;484661;246;1297;-44
2022/11/21 06:35:49;;;;;;;;;;;21.20;42.70;;;;;;484354;246;1700;-42
2022/11/21 06:37:50;;;;;;;;;;;21.20;42.80;;;;;;484255;246;1431;-43
2022/11/21 06:39:51;;;;;;;;;;;21.20;42.70;;;;;;484141;246;1505;-43
2022/11/21 06:41:53;;;;;;;;;;;21.20;42.70;;;;;;484248;246;1638;-43
2022/11/21 06:43:55;;;;;;;;;;;21.20;42.70;;;;;;484349;246;1756;-44
2022/11/21 06:45:57;;;;;;;;;;;21.20;42.70;;;;;;484090;246;2196;-40
2022/11/21 06:48:04;;;;;;;;;;;21.20;42.70;;;;;;484195;246;2019;-44
2022/11/21 06:50:05;;;;;;;;;;;21.20;42.60;;;;;;484629;246;1305;-44
2022/11/21 06:52:07;;;;;;;;;;;21.20;42.70;;;;;;484395;246;1205;-44
2022/11/21 06:54:08;;;;;;;;;;;21.20;42.70;;;;;;484314;242;1364;-44
2022/11/21 06:56:09;;;;;;;;;;;21.20;42.70;;;;;;484115;246;1379;-44
2022/11/21 06:58:11;;;;;;;;;;;21.20;42.70;;;;;;484183;246;1738;-44
2022/11/21 07:00:12;;;;;;;;;;;21.20;42.70;;;;;;484291;246;1272;-44
2022/11/21 07:02:14;;;;;;;;;;;21.10;42.70;;;;;;484180;246;1277;-44
2022/11/21 07:04:15;;;;;;;;;;;21.20;42.80;;;;;;484243;246;1360;-44
2022/11/21 07:06:17;;;;;;;;;;;21.20;42.80;;;;;;484263;246;2187;-44
2022/11/21 07:08:18;;;;;;;;;;;21.20;42.80;;;;;;484442;246;1213;-44
2022/11/21 07:10:20;;;;;;;;;;;21.20;42.70;;;;;;484319;246;1282;-43
2022/11/21 07:14:40;;;;;;;;;;;21.20;42.70;;;;;;484125;246;1281;-44
2022/11/21 07:16:42;;;;;;;;;;;21.20;42.70;;;;;;484121;246;1412;-44
2022/11/21 07:18:44;;;;;;;;;;;21.10;42.60;;;;;;484193;246;1377;-44
2022/11/21 07:20:44;;;;;;;;;;;21.10;42.70;;;;;;484002;246;1967;-41
2022/11/21 07:22:46;;;;;;;;;;;21.20;42.70;;;;;;484363;246;1788;-43
2022/11/21 07:24:47;;;;;;;;;;;21.20;42.70;;;;;;484036;246;2188;-41
2022/11/21 07:26:48;;;;;;;;;;;21.20;42.60;;;;;;484157;246;1660;-44
2022/11/21 07:28:50;;;;;;;;;;;21.20;42.60;;;;;;484072;246;1832;-44
2022/11/21 07:30:51;;;;;;;;;;;21.20;42.50;;;;;;484102;246;1160;-44
2022/11/21 07:32:53;;;;;;;;;;;21.20;42.50;;;;;;484095;246;1315;-44
2022/11/21 07:34:55;;;;;;;;;;;21.20;42.50;;;;;;484215;246;1716;-44
2022/11/21 07:36:56;;;;;;;;;;;21.20;42.50;;;;;;484260;246;1564;-41
2022/11/21 07:38:58;;;;;;;;;;;21.20;42.50;;;;;;484120;246;1284;-44
2022/11/21 07:40:59;;;;;;;;;;;21.20;42.50;;;;;;484123;246;1289;-44
2022/11/21 07:43:01;;;;;;;;;;;21.20;42.50;;;;;;483486;246;1353;-44
2022/11/21 07:45:03;;;;;;;;;;;21.20;42.50;;;;;;484043;242;2184;-43
2022/11/21 07:47:05;;;;;;;;;;;21.20;42.50;;;;;;484200;246;1328;-44
2022/11/21 07:49:06;;;;;;;;;;;21.20;42.50;;;;;;484374;246;1293;-44
2022/11/21 07:51:09;;;;;;;;;;;21.20;42.50;;;;;;484221;246;1362;-44
2022/11/21 07:53:10;;;;;;;;;;;21.20;42.40;;;;;;484016;246;1838;-44
2022/11/21 07:55:11;;;;;;;;;;;21.20;42.50;;;;;;484066;246;1336;-44
2022/11/21 07:57:13;;;;;;;;;;;21.20;42.50;;;;;;483814;246;1259;-43
2022/11/21 07:59:14;;;;;;;;;;;21.20;42.50;;;;;;483740;246;1211;-44
2022/11/21 08:01:16;;;;;;;;;;;21.20;42.50;;;;;;483559;242;1253;-44
2022/11/21 08:03:17;;;;;;;;;;;21.10;42.50;;;;;;483620;246;1257;-44
2022/11/21 08:05:20;;;;;;;;;;;21.20;42.50;;;;;;483636;246;2165;-44
2022/11/21 08:07:21;;;;;;;;;;;21.20;42.50;;;;;;483792;243;2328;-44
2022/11/21 08:09:22;;;;;;;;;;;21.20;42.50;;;;;;483561;246;1471;-44
2022/11/21 08:11:24;;;;;;;;;;;21.20;42.40;;;;;;483776;246;2853;-44
2022/11/21 08:13:25;;;;;;;;;;;21.20;42.40;;;;;;483644;246;1436;-44
2022/11/21 08:15:27;;;;;;;;;;;21.20;42.40;;;;;;483841;246;1347;-41
2022/11/21 08:17:28;;;;;;;;;;;21.20;42.40;;;;;;483718;246;1643;-44
2022/11/21 08:19:30;;;;;;;;;;;21.20;42.40;;;;;;483585;246;1298;-44
2022/11/21 08:21:32;;;;;;;;;;;21.20;42.40;;;;;;483609;246;1353;-44
2022/11/21 08:23:33;;;;;;;;;;;21.20;42.50;;;;;;483284;246;1550;-44
2022/11/21 08:25:34;;;;;;;;;;;21.20;42.40;;;;;;483552;246;2196;-43
2022/11/21 08:27:37;;;;;;;;;;;21.20;42.50;;;;;;483633;246;1351;-43
2022/11/21 08:29:38;;;;;;;;;;;21.20;42.50;;;;;;483777;246;1324;-44
2022/11/21 08:31:39;;;;;;;;;;;21.20;42.50;;;;;;483105;246;1492;-43
2022/11/21 08:33:41;;;;;;;;;;;21.20;42.40;;;;;;483736;246;1259;-44
2022/11/21 08:35:42;;;;;;;;;;;21.20;42.40;;;;;;484036;246;1343;-44
2022/11/21 08:37:44;;;;;;;;;;;21.20;42.40;;;;;;483292;246;1649;-44
2022/11/21 08:39:46;;;;;;;;;;;21.20;42.40;;;;;;483277;246;1614;-40
2022/11/21 08:42:03;;;;;;;;;;;21.20;42.30;;;;;;483161;246;1396;-43
2022/11/21 08:44:04;;;;;;;;;;;21.20;42.40;;;;;;483693;246;1367;-41
2022/11/21 08:46:05;;;;;;;;;;;21.20;42.40;;;;;;483781;246;2168;-43
2022/11/21 08:48:07;;;;;;;;;;;21.30;42.50;;;;;;483277;246;1938;-44
2022/11/21 08:50:08;;;;;;;;;;;21.20;42.40;;;;;;483511;246;1379;-44
2022/11/21 08:52:11;;;;;;;;;;;21.20;42.40;;;;;;483417;246;2032;-41
2022/11/21 08:54:12;;;;;;;;;;;21.30;42.50;;;;;;483611;246;1341;-40
2022/11/21 08:56:14;;;;;;;;;;;21.30;42.40;;;;;;483497;246;1490;-44
2022/11/21 08:58:15;;;;;;;;;;;21.20;42.40;;;;;;483553;246;2409;-40
2022/11/21 09:00:17;;;;;;;;;;;21.30;42.50;;;;;;483669;246;1383;-40
2022/11/21 09:02:18;;;;;;;;;;;21.30;42.40;;;;;;483671;246;1727;-44
2022/11/21 09:04:19;;;;;;;;;;;21.30;42.40;;;;;;483804;246;1374;-44
2022/11/21 09:06:21;;;;;;;;;;;21.30;42.40;;;;;;483795;246;2168;-40
2022/11/21 09:08:22;;;;;;;;;;;21.30;42.40;;;;;;483489;246;1546;-44
2022/11/21 09:10:23;;;;;;;;;;;21.30;42.40;;;;;;483666;246;1403;-41
2022/11/21 09:12:25;;;;;;;;;;;21.30;42.50;;;;;;483521;243;1699;-44
2022/11/21 09:19:13;;;;;;;;;;;21.90;41.40;;;;;;471948;246;1414;-44
2022/11/21 09:21:14;;;;;;;;;;;22.10;40.90;;;;;;483846;246;1634;-44
2022/11/21 09:23:16;;;;;;;;;;;22.30;40.70;;;;;;483930;246;1635;-42
2022/11/21 09:25:17;;;;;;;;;;;22.30;40.50;;;;;;483982;246;2156;-44
2022/11/21 09:27:19;;;;;;;;;;;22.40;40.60;;;;;;483613;246;1300;-44
2022/11/21 09:29:21;;;;;;;;;;;22.40;40.80;;;;;;483914;243;1432;-43
2022/11/21 09:31:22;;;;;;;;;;;22.30;40.90;;;;;;483508;246;1596;-43
2022/11/21 09:33:23;;;;;;;;;;;22.20;40.90;;;;;;484002;246;1330;-44
2022/11/21 09:35:25;;;;;;;;;;;22.40;40.80;;;;;;483910;246;1328;-44
2022/11/21 09:37:26;;;;;;;;;;;22.40;40.80;;;;;;484008;246;1384;-44
2022/11/21 09:39:28;;;;;;;;;;;22.40;40.70;;;;;;484124;246;1272;-43
2022/11/21 09:43:49;;;;;;;;;;;22.20;41.20;;;;;;483900;246;1376;-44
2022/11/21 09:45:50;;;;;;;;;;;22.10;41.50;;;;;;483935;242;2141;-41
2022/11/21 09:47:51;;;;;;;;;;;22.00;41.60;;;;;;484035;246;1287;-44
2022/11/21 09:49:53;;;;;;;;;;;21.90;41.90;;;;;;483948;242;1167;-46
2022/11/21 09:51:54;;;;;;;;;;;21.90;42.10;;;;;;483979;246;1252;-43
2022/11/21 09:53:56;;;;;;;;;;;21.80;42.10;;;;;;484005;246;1332;-44
2022/11/21 09:55:57;;;;;;;;;;;21.80;42.20;;;;;;484066;246;1252;-40
2022/11/21 09:57:59;;;;;;;;;;;21.80;42.20;;;;;;484039;246;1315;-43
2022/11/21 10:00:01;;;;;;;;;;;21.80;42.30;;;;;;484017;246;1405;-44
2022/11/21 10:02:02;;;;;;;;;;;21.80;42.30;;;;;;484079;246;1231;-44
2022/11/21 10:04:04;;;;;;;;;;;21.80;42.20;;;;;;484010;246;2039;-43
2022/11/21 10:06:05;;;;;;;;;;;21.80;42.20;;;;;;484014;246;2164;-42
2022/11/21 10:08:06;;;;;;;;;;;21.70;42.10;;;;;;483979;246;1240;-43
2022/11/21 10:10:08;;;;;;;;;;;21.70;42.10;;;;;;483976;246;1418;-44
2022/11/21 10:14:29;;;;;;;;;;;21.70;42.20;;;;;;483899;246;1672;-44
2022/11/21 10:16:31;;;;;;;;;;;21.70;42.20;;;;;;484048;246;1250;-44
2022/11/21 10:18:32;;;;;;;;;;;21.60;42.30;;;;;;483963;246;1237;-44
2022/11/21 10:20:34;;;;;;;;;;;21.70;42.20;;;;;;483847;246;1260;-44
2022/11/21 10:22:35;;;;;;;;;;;21.70;42.20;;;;;;484137;246;1249;-44
2022/11/21 10:24:37;;;;;;;;;;;21.60;42.10;;;;;;483900;246;1282;-44
2022/11/21 10:26:38;;;;;;;;;;;21.70;42.10;;;;;;483988;246;2167;-44
2022/11/21 10:28:40;;;;;;;;;;;21.70;42.20;;;;;;483973;246;1394;-44
2022/11/21 10:30:41;;;;;;;;;;;21.70;42.20;;;;;;484010;246;1212;-43
2022/11/21 10:32:42;;;;;;;;;;;21.70;42.10;;;;;;483932;246;1199;-44
2022/11/21 10:34:44;;;;;;;;;;;21.60;42.10;;;;;;483835;246;1178;-43
2022/11/21 10:36:45;;;;;;;;;;;21.60;42.10;;;;;;484125;246;1213;-44
2022/11/21 10:38:49;;;;;;;;;;;21.60;42.10;;;;;;484064;246;1463;-44
2022/11/21 10:40:48;;;;;;;;;;;21.60;42.20;;;;;;483750;246;1975;-44
2022/11/21 10:42:50;;;;;;;;;;;21.60;42.20;;;;;;484016;246;1299;-43
2022/11/21 10:47:11;;;;;;;;;;;21.60;42.20;;;;;;484110;246;2160;-44
2022/11/21 10:49:13;;;;;;;;;;;21.60;42.10;;;;;;483915;246;1303;-43
2022/11/21 10:51:15;;;;;;;;;;;21.60;42.10;;;;;;484155;246;2157;-43
2022/11/21 10:55:35;;;;;;;;;;;21.50;42.10;;;;;;483898;246;1626;-44
2022/11/21 10:57:37;;;;;;;;;;;21.50;42.10;;;;;;483742;246;1309;-44
2022/11/21 10:59:38;;;;;;;;;;;21.50;42.20;;;;;;484034;246;1315;-44
2022/11/21 11:01:39;;;;;;;;;;;21.50;42.10;;;;;;483941;246;1604;-44
2022/11/21 11:03:41;;;;;;;;;;;21.50;42.10;;;;;;483815;242;1220;-43
2022/11/21 11:05:42;;;;;;;;;;;21.50;42.10;;;;;;483640;246;1313;-44
2022/11/21 11:07:44;;;;;;;;;;;21.50;42.10;;;;;;483562;246;2192;-44
2022/11/21 11:09:46;;;;;;;;;;;21.50;42.10;;;;;;483942;246;1392;-43
2022/11/21 11:11:47;;;;;;;;;;;21.50;42.10;;;;;;483824;246;1192;-44
2022/11/21 11:13:49;;;;;;;;;;;21.50;42.00;;;;;;483773;246;1204;-44
2022/11/21 11:15:50;;;;;;;;;;;21.50;42.00;;;;;;483931;246;1262;-44
2022/11/21 11:17:51;;;;;;;;;;;21.50;42.00;;;;;;483893;246;1407;-43
2022/11/21 11:19:53;;;;;;;;;;;21.50;42.00;;;;;;483710;246;1292;-44
2022/11/21 11:21:55;;;;;;;;;;;21.50;42.00;;;;;;483864;246;1358;-41
2022/11/21 11:24:00;;;;;;;;;;;21.50;42.00;;;;;;483695;246;1239;-43
2022/11/21 11:26:02;;;;;;;;;;;21.50;42.00;;;;;;483868;246;2203;-44
2022/11/21 11:28:03;;;;;;;;;;;21.50;42.00;;;;;;483811;246;1476;-44
2022/11/21 11:30:04;;;;;;;;;;;21.50;41.80;;;;;;483761;242;1417;-43
2022/11/21 11:32:06;;;;;;;;;;;21.50;41.90;;;;;;483884;246;1415;-44
2022/11/21 11:34:07;;;;;;;;;;;21.50;41.90;;;;;;483720;246;1597;-44
2022/11/21 11:36:08;;;;;;;;;;;21.50;41.90;;;;;;483902;246;1289;-44
2022/11/21 11:38:10;;;;;;;;;;;21.50;41.80;;;;;;483743;246;1260;-44
2022/11/21 11:40:11;;;;;;;;;;;21.50;41.90;;;;;;483958;246;1355;-44
2022/11/21 11:49:10;;;;;;;;;;;21.50;41.80;;;;;;483973;246;1991;-44
2022/11/21 11:51:12;;;;;;;;;;;21.50;41.70;;;;;;483951;246;1303;-44
2022/11/21 11:53:14;;;;;;;;;;;21.50;41.70;;;;;;483832;246;2971;-42
2022/11/21 11:55:15;;;;;;;;;;;21.50;41.70;;;;;;484020;246;1263;-44
2022/11/21 11:57:16;;;;;;;;;;;21.50;41.80;;;;;;483784;246;1850;-44
2022/11/21 11:59:18;;;;;;;;;;;21.50;41.70;;;;;;483922;246;1812;-44
2022/11/21 12:01:19;;;;;;;;;;;21.50;41.70;;;;;;483793;246;1471;-42
2022/11/21 12:03:22;;;;;;;;;;;21.50;41.80;;;;;;483814;246;1314;-44
2022/11/21 12:05:22;;;;;;;;;;;21.50;41.70;;;;;;483693;246;1665;-44
2022/11/21 12:07:23;;;;;;;;;;;21.50;41.70;;;;;;483924;246;2192;-44
2022/11/21 12:09:26;;;;;;;;;;;21.60;41.70;;;;;;483865;246;1250;-43
2022/11/21 12:13:46;;;;;;;;;;;21.80;41.10;;;;;;483868;246;1346;-44
2022/11/21 12:15:51;;;;;;;;;;;22.00;40.70;;;;;;483884;246;1621;-44
2022/11/21 12:17:53;;;;;;;;;;;22.20;40.40;;;;;;483977;246;1503;-44
2022/11/21 12:19:54;;;;;;;;;;;22.20;40.50;;;;;;483808;246;1578;-44
2022/11/21 12:21:56;;;;;;;;;;;22.20;40.40;;;;;;484058;246;1837;-44
2022/11/21 12:23:57;;;;;;;;;;;22.10;40.60;;;;;;483940;246;1199;-44
2022/11/21 12:25:58;;;;;;;;;;;22.00;40.80;;;;;;483804;246;1692;-44
2022/11/21 12:28:00;;;;;;;;;;;22.00;41.00;;;;;;483742;246;2204;-44
2022/11/21 12:30:02;;;;;;;;;;;21.90;41.10;;;;;;483964;246;1372;-42
2022/11/21 12:32:03;;;;;;;;;;;21.90;41.20;;;;;;483943;246;1084;-42